Time,TemperatureF,DewpointF,PressureIn,WindDirection,WindDirectionDegrees,WindSpeedMPH,WindSpeedGustMPH,Humidity,HourlyPrecipIn,Conditions,Clouds,dailyrainin,SoftwareType,DateUTC
2013-01-19 00:03:00,26.2,6.8,28.64,North,0,0.0,0.0,43,0.00,,,0.00,VWS V13.01,2013-01-19 06:03:00,
2013-01-19 00:08:00,26.1,6.6,28.64,North,0,0.0,0.0,43,0.00,,,0.00,VWS V13.01,2013-01-19 06:08:00,
2013-01-19 00:13:00,26.4,7.0,28.64,North,0,0.0,0.0,43,0.00,,,0.00,VWS V13.01,2013-01-19 06:13:00,
2013-01-19 00:18:00,26.8,7.3,28.64,NW,313,2.7,2.7,43,0.00,,,0.00,VWS V13.01,2013-01-19 06:18:00,
2013-01-19 00:23:00,27.0,7.5,28.64,WNW,300,2.2,2.2,43,0.00,,,0.00,VWS V13.01,2013-01-19 06:23:00,
2013-01-19 00:28:00,27.0,7.5,28.64,WNW,288,0.0,0.0,43,0.00,,,0.00,VWS V13.01,2013-01-19 06:28:00,
2013-01-19 00:33:00,27.0,7.5,28.64,West,280,0.0,0.0,43,0.00,,,0.00,VWS V13.01,2013-01-19 06:33:00,
2013-01-19 00:38:00,26.8,6.8,28.64,West,280,0.0,0.0,42,0.00,,,0.00,VWS V13.01,2013-01-19 06:38:00,
2013-01-19 00:43:00,27.0,6.9,28.64,West,280,0.0,0.0,42,0.00,,,0.00,VWS V13.01,2013-01-19 06:43:00,
2013-01-19 00:48:00,26.8,6.8,28.64,West,280,0.0,0.0,42,0.00,,,0.00,VWS V13.01,2013-01-19 06:48:00,
2013-01-19 00:53:00,26.8,7.3,28.61,West,280,0.0,0.0,43,0.00,,,0.00,VWS V13.01,2013-01-19 06:53:00,
2013-01-19 00:58:00,27.0,7.5,28.61,West,280,0.0,0.0,43,0.00,,,0.00,VWS V13.01,2013-01-19 06:58:00,
2013-01-19 01:03:00,26.8,7.3,28.61,West,280,0.0,0.0,43,0.00,,,0.00,VWS V13.01,2013-01-19 07:03:00,
2013-01-19 01:08:00,26.2,6.8,28.61,WNW,285,0.0,0.0,43,0.00,,,0.00,VWS V13.01,2013-01-19 07:08:00,
2013-01-19 01:13:00,25.9,6.5,28.61,NW,312,0.0,0.0,43,0.00,,,0.00,VWS V13.01,2013-01-19 07:13:00,
2013-01-19 01:18:00,25.9,6.5,28.61,NW,312,0.0,0.0,43,0.00,,,0.00,VWS V13.01,2013-01-19 07:18:00,
2013-01-19 01:23:00,26.2,6.8,28.61,WNW,283,0.0,0.0,43,0.00,,,0.00,VWS V13.01,2013-01-19 07:23:00,
2013-01-19 01:28:00,26.6,7.1,28.61,West,275,0.0,0.0,43,0.00,,,0.00,VWS V13.01,2013-01-19 07:28:00,
2013-01-19 01:33:00,26.6,7.1,28.61,West,275,0.0,0.0,43,0.00,,,0.00,VWS V13.01,2013-01-19 07:33:00,
2013-01-19 01:38:00,26.6,7.1,28.61,West,275,0.0,0.0,43,0.00,,,0.00,VWS V13.01,2013-01-19 07:38:00,
2013-01-19 01:43:00,26.6,7.1,28.61,West,273,0.0,0.0,43,0.00,,,0.00,VWS V13.01,2013-01-19 07:43:00,
2013-01-19 01:48:00,26.8,7.3,28.61,West,273,0.0,0.0,43,0.00,,,0.00,VWS V13.01,2013-01-19 07:48:00,
2013-01-19 01:53:00,27.1,7.6,28.61,West,273,0.0,0.0,43,0.00,,,0.00,VWS V13.01,2013-01-19 07:53:00,
2013-01-19 01:58:00,27.5,7.9,28.61,West,273,0.0,0.0,43,0.00,,,0.00,VWS V13.01,2013-01-19 07:58:00,
2013-01-19 02:03:00,27.7,8.6,28.61,West,273,0.0,0.0,44,0.00,,,0.00,VWS V13.01,2013-01-19 08:03:00,
2013-01-19 02:08:00,27.9,8.8,28.61,West,273,0.0,0.0,44,0.00,,,0.00,VWS V13.01,2013-01-19 08:08:00,
2013-01-19 02:13:00,27.9,8.8,28.61,West,273,0.0,0.0,44,0.00,,,0.00,VWS V13.01,2013-01-19 08:13:00,
2013-01-19 02:18:00,27.9,8.8,28.61,West,273,0.0,0.0,44,0.00,,,0.00,VWS V13.01,2013-01-19 08:18:00,
2013-01-19 02:23:00,28.0,8.9,28.61,West,273,0.0,0.0,44,0.00,,,0.00,VWS V13.01,2013-01-19 08:23:00,
2013-01-19 02:28:00,28.0,8.9,28.61,West,273,0.0,0.0,44,0.00,,,0.00,VWS V13.01,2013-01-19 08:28:00,
2013-01-19 02:33:00,28.0,9.4,28.61,NW,315,0.0,0.0,45,0.00,,,0.00,VWS V13.01,2013-01-19 08:33:00,
2013-01-19 02:38:00,27.9,9.3,28.61,NW,315,0.0,0.0,45,0.00,,,0.00,VWS V13.01,2013-01-19 08:38:00,
2013-01-19 02:43:00,27.7,9.1,28.61,NW,315,0.0,0.0,45,0.00,,,0.00,VWS V13.01,2013-01-19 08:43:00,
2013-01-19 02:48:00,27.5,9.0,28.61,WNW,297,0.0,0.0,45,0.00,,,0.00,VWS V13.01,2013-01-19 08:48:00,
2013-01-19 02:53:00,27.7,9.1,28.61,NW,312,3.1,3.1,45,0.00,,,0.00,VWS V13.01,2013-01-19 08:53:00,
2013-01-19 02:58:00,27.7,8.6,28.61,NW,305,3.6,4.0,44,0.00,,,0.00,VWS V13.01,2013-01-19 08:58:00,
2013-01-19 03:03:00,27.7,8.1,28.61,WNW,284,3.6,4.0,43,0.00,,,0.00,VWS V13.01,2013-01-19 09:03:00,
2013-01-19 03:09:00,27.7,8.1,28.59,WNW,291,4.0,4.0,43,0.00,,,0.00,VWS V13.01,2013-01-19 09:09:00,
2013-01-19 03:14:00,27.9,7.8,28.59,West,281,4.0,4.0,42,0.00,,,0.00,VWS V13.01,2013-01-19 09:14:00,
2013-01-19 03:19:00,27.7,7.6,28.59,West,277,2.7,3.1,42,0.00,,,0.00,VWS V13.01,2013-01-19 09:19:00,
2013-01-19 03:24:00,27.3,7.3,28.59,WNW,295,2.7,4.0,42,0.00,,,0.00,VWS V13.01,2013-01-19 09:24:00,
2013-01-19 03:29:00,27.3,7.3,28.59,WNW,294,2.7,2.7,42,0.00,,,0.00,VWS V13.01,2013-01-19 09:29:00,
2013-01-19 03:34:00,27.3,7.3,28.59,West,279,2.7,3.1,42,0.00,,,0.00,VWS V13.01,2013-01-19 09:34:00,
2013-01-19 03:39:00,26.8,6.8,28.59,WNW,283,0.0,0.0,42,0.00,,,0.00,VWS V13.01,2013-01-19 09:39:00,
2013-01-19 03:44:00,26.2,6.3,28.59,WNW,283,0.0,0.0,42,0.00,,,0.00,VWS V13.01,2013-01-19 09:44:00,
2013-01-19 03:49:00,26.4,7.0,28.59,North,0,0.0,0.0,43,0.00,,,0.00,VWS V13.01,2013-01-19 09:49:00,
2013-01-19 03:54:00,27.1,7.6,28.59,NNW,331,2.7,2.7,43,0.00,,,0.00,VWS V13.01,2013-01-19 09:54:00,
2013-01-19 03:59:00,27.9,8.8,28.59,NNW,328,3.1,3.1,44,0.00,,,0.00,VWS V13.01,2013-01-19 09:59:00,
2013-01-19 04:04:00,28.0,8.9,28.59,NW,306,3.6,4.9,44,0.00,,,0.00,VWS V13.01,2013-01-19 10:04:00,
2013-01-19 04:09:00,28.4,9.3,28.59,NNW,334,2.7,4.0,44,0.00,,,0.00,VWS V13.01,2013-01-19 10:09:00,
2013-01-19 04:14:00,28.4,9.3,28.59,NNW,341,3.6,3.6,44,0.00,,,0.00,VWS V13.01,2013-01-19 10:14:00,
2013-01-19 04:19:00,28.8,9.1,28.59,WNW,297,5.4,6.3,43,0.00,,,0.00,VWS V13.01,2013-01-19 10:19:00,
2013-01-19 04:24:00,28.6,8.9,28.56,NW,321,2.7,2.7,43,0.00,,,0.00,VWS V13.01,2013-01-19 10:24:00,
2013-01-19 04:29:00,28.8,9.1,28.56,WNW,302,6.3,6.3,43,0.00,,,0.00,VWS V13.01,2013-01-19 10:29:00,
2013-01-19 04:34:00,28.6,8.4,28.56,NW,309,4.9,4.9,42,0.00,,,0.00,VWS V13.01,2013-01-19 10:34:00,
2013-01-19 04:39:00,28.4,8.2,28.56,NNW,342,2.7,3.6,42,0.00,,,0.00,VWS V13.01,2013-01-19 10:39:00,
2013-01-19 04:44:00,28.0,7.9,28.56,East,88,0.0,0.0,42,0.00,,,0.00,VWS V13.01,2013-01-19 10:44:00,
2013-01-19 04:49:00,27.5,7.4,28.56,East,88,0.0,0.0,42,0.00,,,0.00,VWS V13.01,2013-01-19 10:49:00,
2013-01-19 04:54:00,27.3,6.7,28.56,East,88,0.0,0.0,41,0.00,,,0.00,VWS V13.01,2013-01-19 10:54:00,
2013-01-19 04:59:00,27.0,6.9,28.56,East,88,0.0,0.0,42,0.00,,,0.00,VWS V13.01,2013-01-19 10:59:00,
2013-01-19 05:04:00,27.0,6.9,28.56,East,88,0.0,0.0,42,0.00,,,0.00,VWS V13.01,2013-01-19 11:04:00,
2013-01-19 05:09:00,26.4,6.4,28.59,East,88,0.0,0.0,42,0.00,,,0.00,VWS V13.01,2013-01-19 11:09:00,
2013-01-19 05:14:00,26.1,6.6,28.59,NNW,342,0.0,0.0,43,0.00,,,0.00,VWS V13.01,2013-01-19 11:14:00,
2013-01-19 06:47:00,25.5,6.7,28.56,ESE,102,2.7,2.7,44,0.00,,,0.00,VWS V13.01,2013-01-19 12:47:00,
2013-01-19 06:48:00,25.3,6.5,28.56,ESE,102,0.0,2.2,44,0.00,,,0.00,VWS V13.01,2013-01-19 12:48:00,
2013-01-19 06:53:00,25.2,5.8,28.56,North,0,0.0,0.0,43,0.00,,,0.00,VWS V13.01,2013-01-19 12:53:00,
2013-01-19 06:58:00,25.0,5.7,28.56,North,3,0.0,0.0,43,0.00,,,0.00,VWS V13.01,2013-01-19 12:58:00,
2013-01-19 07:03:00,24.6,4.8,28.56,North,3,0.0,0.0,42,0.00,,,0.00,VWS V13.01,2013-01-19 13:03:00,
2013-01-19 07:08:00,25.3,5.5,28.56,East,91,0.0,0.0,42,0.00,,,0.00,VWS V13.01,2013-01-19 13:08:00,
2013-01-19 07:13:00,25.3,5.5,28.56,East,91,0.0,0.0,42,0.00,,,0.00,VWS V13.01,2013-01-19 13:13:00,
2013-01-19 07:18:00,25.5,6.2,28.56,NNE,22,0.0,0.0,43,0.00,,,0.00,VWS V13.01,2013-01-19 13:18:00,
2013-01-19 07:23:00,25.7,6.3,28.56,NNE,22,0.0,0.0,43,0.00,,,0.00,VWS V13.01,2013-01-19 13:23:00,
2013-01-19 07:28:00,25.7,5.8,28.56,NNE,22,0.0,0.0,42,0.00,,,0.00,VWS V13.01,2013-01-19 13:28:00,
2013-01-19 07:33:00,25.5,5.6,28.56,NNE,22,0.0,0.0,42,0.00,,,0.00,VWS V13.01,2013-01-19 13:33:00,
2013-01-19 07:38:00,25.7,5.8,28.56,NNE,22,0.0,0.0,42,0.00,,,0.00,VWS V13.01,2013-01-19 13:38:00,
2013-01-19 07:43:00,25.7,5.8,28.56,NNE,22,0.0,0.0,42,0.00,,,0.00,VWS V13.01,2013-01-19 13:43:00,
2013-01-19 07:48:00,25.9,6.0,28.56,NE,34,4.0,4.0,42,0.00,,,0.00,VWS V13.01,2013-01-19 13:48:00,
2013-01-19 07:53:00,26.1,6.1,28.56,NE,37,0.0,0.0,42,0.00,,,0.00,VWS V13.01,2013-01-19 13:53:00,
2013-01-19 07:58:00,26.6,7.1,28.56,ENE,74,0.0,0.0,43,0.00,,,0.00,VWS V13.01,2013-01-19 13:58:00,
2013-01-19 08:03:00,27.0,7.5,28.56,ESE,115,0.0,0.0,43,0.00,,,0.00,VWS V13.01,2013-01-19 14:03:00,
2013-01-19 08:08:00,27.1,7.6,28.59,ESE,115,0.0,0.0,43,0.00,,,0.00,VWS V13.01,2013-01-19 14:08:00,
2013-01-19 08:13:00,27.7,8.1,28.59,NNE,31,0.0,0.0,43,0.00,,,0.00,VWS V13.01,2013-01-19 14:13:00,
2013-01-19 08:18:00,28.0,8.4,28.59,NNE,20,0.0,0.0,43,0.00,,,0.00,VWS V13.01,2013-01-19 14:18:00,
2013-01-19 08:23:00,28.2,8.6,28.59,North,4,0.0,0.0,43,0.00,,,0.00,VWS V13.01,2013-01-19 14:23:00,
2013-01-19 08:28:00,28.6,8.9,28.59,NE,47,0.0,0.0,43,0.00,,,0.00,VWS V13.01,2013-01-19 14:28:00,
2013-01-19 08:33:00,28.8,9.1,28.59,NE,47,0.0,0.0,43,0.00,,,0.00,VWS V13.01,2013-01-19 14:33:00,
2013-01-19 08:38:00,29.1,9.4,28.59,NNE,15,0.0,0.0,43,0.00,,,0.00,VWS V13.01,2013-01-19 14:38:00,
2013-01-19 08:43:00,29.5,9.8,28.59,East,85,0.0,2.2,43,0.00,,,0.00,VWS V13.01,2013-01-19 14:43:00,
2013-01-19 08:48:00,30.0,10.8,28.59,North,4,2.7,2.7,44,0.00,,,0.00,VWS V13.01,2013-01-19 14:48:00,
2013-01-19 08:53:00,30.2,10.9,28.59,ESE,104,0.0,0.0,44,0.00,,,0.00,VWS V13.01,2013-01-19 14:53:00,
2013-01-19 08:58:00,30.2,10.9,28.59,NE,48,0.0,0.0,44,0.00,,,0.00,VWS V13.01,2013-01-19 14:58:00,
2013-01-19 09:03:00,30.4,10.6,28.59,NE,42,0.0,0.0,43,0.00,,,0.00,VWS V13.01,2013-01-19 15:03:00,
2013-01-19 09:08:00,30.7,11.4,28.59,NNE,32,0.0,0.0,44,0.00,,,0.00,VWS V13.01,2013-01-19 15:08:00,
2013-01-19 09:13:00,31.1,11.8,28.59,NE,42,0.0,0.0,44,0.00,,,0.00,VWS V13.01,2013-01-19 15:13:00,
2013-01-19 09:18:00,31.5,12.1,28.59,ENE,66,0.0,0.0,44,0.00,,,0.00,VWS V13.01,2013-01-19 15:18:00,
2013-01-19 09:23:00,31.6,12.8,28.59,NE,47,0.0,3.1,45,0.00,,,0.00,VWS V13.01,2013-01-19 15:23:00,
2013-01-19 09:28:00,32.2,13.2,28.59,East,81,0.0,0.0,45,0.00,,,0.00,VWS V13.01,2013-01-19 15:28:00,
2013-01-19 09:33:00,31.8,12.9,28.59,ENE,60,3.6,3.6,45,0.00,,,0.00,VWS V13.01,2013-01-19 15:33:00,
2013-01-19 09:38:00,32.2,13.7,28.61,ENE,73,0.0,2.2,46,0.00,,,0.00,VWS V13.01,2013-01-19 15:38:00,
2013-01-19 09:43:00,32.2,13.2,28.61,ENE,60,0.0,0.0,45,0.00,,,0.00,VWS V13.01,2013-01-19 15:43:00,
2013-01-19 09:48:00,32.0,12.6,28.61,ENE,73,2.7,4.0,44,0.00,,,0.00,VWS V13.01,2013-01-19 15:48:00,
2013-01-19 09:53:00,32.5,12.5,28.61,NE,53,2.2,2.2,43,0.00,,,0.00,VWS V13.01,2013-01-19 15:53:00,
2013-01-19 09:58:00,32.5,12.0,28.61,East,87,2.2,2.2,42,0.00,,,0.00,VWS V13.01,2013-01-19 15:58:00,
2013-01-19 10:03:00,32.7,11.6,28.61,ESE,103,0.0,0.0,41,0.00,,,0.00,VWS V13.01,2013-01-19 16:03:00,
2013-01-19 10:08:00,33.3,11.6,28.61,East,96,0.0,2.2,40,0.00,,,0.00,VWS V13.01,2013-01-19 16:08:00,
2013-01-19 10:13:00,34.0,9.9,28.61,East,86,3.6,3.6,36,0.00,,,0.00,VWS V13.01,2013-01-19 16:13:00,
2013-01-19 10:18:00,34.3,7.6,28.61,East,88,3.6,3.6,32,0.00,,,0.00,VWS V13.01,2013-01-19 16:18:00,
2013-01-19 10:23:00,34.3,6.1,28.61,ESE,116,0.0,0.0,30,0.00,,,0.00,VWS V13.01,2013-01-19 16:23:00,
2013-01-19 10:28:00,34.0,1.9,28.61,SSE,154,4.0,4.0,25,0.00,,,0.00,VWS V13.01,2013-01-19 16:28:00,
2013-01-19 10:33:00,34.5,2.3,28.61,ENE,71,3.1,3.1,25,0.00,,,0.00,VWS V13.01,2013-01-19 16:33:00,
2013-01-19 10:39:00,35.4,-1.6,28.61,East,81,3.6,5.4,20,0.00,,,0.00,VWS V13.01,2013-01-19 16:39:00,
2013-01-19 10:44:00,36.3,-4.3,28.61,ESE,113,3.6,3.6,17,0.00,,,0.00,VWS V13.01,2013-01-19 16:44:00,
2013-01-19 10:49:00,37.4,-4.7,28.61,NE,37,2.7,2.7,16,0.00,,,0.00,VWS V13.01,2013-01-19 16:49:00,
2013-01-19 10:54:00,40.5,-6.5,28.61,ENE,64,4.0,8.3,13,0.00,,,0.00,VWS V13.01,2013-01-19 16:54:00,
2013-01-19 10:59:00,43.9,-3.8,28.61,SE,129,2.2,3.1,13,0.00,,,0.00,VWS V13.01,2013-01-19 16:59:00,
2013-01-19 11:04:00,41.9,-5.3,28.61,East,83,4.0,6.3,13,0.00,,,0.00,VWS V13.01,2013-01-19 17:04:00,
2013-01-19 11:09:00,41.0,-6.1,28.61,ESE,108,0.0,3.6,13,0.00,,,0.00,VWS V13.01,2013-01-19 17:09:00,
2013-01-19 11:14:00,39.6,-7.2,28.61,ESE,106,4.0,5.4,13,0.00,,,0.00,VWS V13.01,2013-01-19 17:14:00,
2013-01-19 11:19:00,39.7,-7.1,28.61,SE,139,3.1,3.6,13,0.00,,,0.00,VWS V13.01,2013-01-19 17:19:00,
2013-01-19 11:24:00,43.5,-4.1,28.61,SE,142,0.0,5.8,13,0.00,,,0.00,VWS V13.01,2013-01-19 17:24:00,
2013-01-19 11:29:00,43.9,-3.8,28.61,East,100,3.1,4.0,13,0.00,,,0.00,VWS V13.01,2013-01-19 17:29:00,
2013-01-19 11:34:00,44.1,-3.6,28.61,ESE,119,3.6,4.0,13,0.00,,,0.00,VWS V13.01,2013-01-19 17:34:00,
2013-01-19 11:39:00,44.1,-3.6,28.61,East,101,3.1,3.1,13,0.00,,,0.00,VWS V13.01,2013-01-19 17:39:00,
2013-01-19 11:44:00,42.8,-4.6,28.61,ESE,122,2.7,4.0,13,0.00,,,0.00,VWS V13.01,2013-01-19 17:44:00,
2013-01-19 11:49:00,43.2,-4.3,28.61,East,91,7.6,7.6,13,0.00,,,0.00,VWS V13.01,2013-01-19 17:49:00,
2013-01-19 11:55:00,42.6,-4.8,28.61,ESE,111,4.9,4.9,13,0.00,,,0.00,VWS V13.01,2013-01-19 17:55:00,
2013-01-19 12:00:00,39.9,-6.9,28.61,East,101,3.6,5.8,13,0.00,,,0.00,VWS V13.01,2013-01-19 18:00:00,
2013-01-19 12:05:00,39.7,-7.1,28.61,ESE,118,4.9,4.9,13,0.00,,,0.00,VWS V13.01,2013-01-19 18:05:00,
2013-01-19 12:11:00,41.0,-6.1,28.61,NNE,32,9.6,9.6,13,0.00,,,0.00,VWS V13.01,2013-01-19 18:11:00,
2013-01-19 12:16:00,39.6,-7.2,28.61,North,357,6.3,7.6,13,0.00,,,0.00,VWS V13.01,2013-01-19 18:16:00,
2013-01-19 12:22:00,39.9,-6.9,28.61,SSE,161,5.4,5.4,13,0.00,,,0.00,VWS V13.01,2013-01-19 18:22:00,
2013-01-19 12:27:00,38.7,-6.4,28.61,ENE,74,7.6,7.6,14,0.00,,,0.00,VWS V13.01,2013-01-19 18:27:00,
2013-01-19 12:32:00,39.6,-7.2,28.61,ENE,72,6.7,6.7,13,0.00,,,0.00,VWS V13.01,2013-01-19 18:32:00,
2013-01-19 12:38:00,40.6,-6.4,28.61,SE,136,8.7,8.7,13,0.00,,,0.00,VWS V13.01,2013-01-19 18:38:00,
2013-01-19 12:43:00,40.5,-6.5,28.61,SE,125,5.4,5.8,13,0.00,,,0.00,VWS V13.01,2013-01-19 18:43:00,
2013-01-19 12:48:00,39.6,-7.2,28.61,ESE,109,8.1,8.1,13,0.00,,,0.00,VWS V13.01,2013-01-19 18:48:00,
2013-01-19 12:53:00,39.2,-7.5,28.59,ESE,103,3.1,4.0,13,0.00,,,0.00,VWS V13.01,2013-01-19 18:53:00,
2013-01-19 12:58:00,38.5,-6.6,28.59,East,82,5.8,9.6,14,0.00,,,0.00,VWS V13.01,2013-01-19 18:58:00,
2013-01-19 13:04:00,38.8,-6.3,28.59,NE,34,2.7,4.0,14,0.00,,,0.00,VWS V13.01,2013-01-19 19:04:00,
2013-01-19 13:09:00,38.7,-6.4,28.61,NE,39,6.3,8.1,14,0.00,,,0.00,VWS V13.01,2013-01-19 19:09:00,
2013-01-19 13:14:00,38.1,-6.9,28.61,ESE,115,2.7,9.6,14,0.00,,,0.00,VWS V13.01,2013-01-19 19:14:00,
2013-01-19 13:19:00,37.6,-7.3,28.61,ENE,62,3.6,5.8,14,0.00,,,0.00,VWS V13.01,2013-01-19 19:19:00,
2013-01-19 13:24:00,37.2,-7.6,28.61,NE,47,5.4,5.8,14,0.00,,,0.00,VWS V13.01,2013-01-19 19:24:00,
2013-01-19 13:29:00,37.4,-7.4,28.61,SE,130,2.7,3.1,14,0.00,,,0.00,VWS V13.01,2013-01-19 19:29:00,
2013-01-19 13:34:00,37.4,-7.4,28.61,ENE,62,4.9,9.2,14,0.00,,,0.00,VWS V13.01,2013-01-19 19:34:00,
2013-01-19 13:39:00,37.2,-7.6,28.61,NE,45,10.5,10.5,14,0.00,,,0.00,VWS V13.01,2013-01-19 19:39:00,
2013-01-19 13:44:00,37.2,-7.6,28.61,ESE,103,5.8,8.1,14,0.00,,,0.00,VWS V13.01,2013-01-19 19:44:00,
2013-01-19 13:49:00,37.0,-7.7,28.61,SSE,156,2.7,5.4,14,0.00,,,0.00,VWS V13.01,2013-01-19 19:49:00,
2013-01-19 13:54:00,35.1,-7.9,28.61,East,98,8.3,8.7,15,0.00,,,0.00,VWS V13.01,2013-01-19 19:54:00,
2013-01-19 13:59:00,33.4,-9.2,28.61,East,92,8.3,8.3,15,0.00,,,0.00,VWS V13.01,2013-01-19 19:59:00,
2013-01-19 14:05:00,31.8,-10.6,28.61,East,95,7.6,11.4,15,0.00,,,0.00,VWS V13.01,2013-01-19 20:05:00,
2013-01-19 14:10:00,31.6,-10.7,28.64,East,90,8.7,8.7,15,0.00,,,0.00,VWS V13.01,2013-01-19 20:10:00,
2013-01-19 14:15:00,31.6,-10.7,28.64,ESE,116,3.1,5.4,15,0.00,,,0.00,VWS V13.01,2013-01-19 20:15:00,
2013-01-19 14:20:00,31.1,-11.1,28.64,North,357,8.7,12.3,15,0.00,,,0.00,VWS V13.01,2013-01-19 20:20:00,
2013-01-19 14:25:00,30.4,-11.7,28.64,SE,131,6.3,6.3,15,0.00,,,0.00,VWS V13.01,2013-01-19 20:25:00,
2013-01-19 14:31:00,29.1,-12.8,28.64,NNE,21,8.1,19.2,15,0.00,,,0.00,VWS V13.01,2013-01-19 20:31:00,
2013-01-19 14:37:00,27.3,-12.9,28.64,ESE,105,8.1,8.1,16,0.00,,,0.00,VWS V13.01,2013-01-19 20:37:00,
2013-01-19 14:42:00,26.1,-14.0,28.67,ESE,112,17.0,17.0,16,0.00,,,0.00,VWS V13.01,2013-01-19 20:42:00,
2013-01-19 14:47:00,23.7,-14.7,28.67,ESE,104,8.1,11.0,17,0.00,,,0.00,VWS V13.01,2013-01-19 20:47:00,
2013-01-19 14:52:00,23.0,-15.3,28.67,SE,126,10.1,12.3,17,0.00,,,0.00,VWS V13.01,2013-01-19 20:52:00,
2013-01-19 14:57:00,22.8,-15.4,28.70,SSW,195,14.5,14.5,17,0.00,,,0.00,VWS V13.01,2013-01-19 20:57:00,
2013-01-19 15:02:00,21.9,-16.2,28.70,ESE,102,17.0,17.0,17,0.00,,,0.00,VWS V13.01,2013-01-19 21:02:00,
2013-01-19 15:07:00,21.4,-16.6,28.70,East,84,8.7,10.5,17,0.00,,,0.00,VWS V13.01,2013-01-19 21:07:00,
2013-01-19 15:13:00,21.4,-16.6,28.70,NE,40,17.9,17.9,17,0.00,,,0.00,VWS V13.01,2013-01-19 21:13:00,
2013-01-19 15:19:00,21.0,-16.9,28.70,SSE,161,12.3,12.3,17,0.00,,,0.00,VWS V13.01,2013-01-19 21:19:00,
2013-01-19 15:24:00,21.0,-16.9,28.73,ESE,110,3.1,6.7,17,0.00,,,0.00,VWS V13.01,2013-01-19 21:24:00,
2013-01-19 15:29:00,21.0,-16.9,28.73,ESE,103,4.9,5.8,17,0.00,,,0.00,VWS V13.01,2013-01-19 21:29:00,
2013-01-19 15:34:00,20.5,-17.4,28.73,ENE,63,4.0,5.4,17,0.00,,,0.00,VWS V13.01,2013-01-19 21:34:00,
2013-01-19 15:39:00,18.5,-21.4,28.76,East,79,5.8,10.5,15,0.00,,,0.00,VWS V13.01,2013-01-19 21:39:00,
2013-01-19 15:44:00,18.0,-21.9,28.76,ESE,113,16.3,16.3,15,0.00,,,0.00,VWS V13.01,2013-01-19 21:44:00,
2013-01-19 15:50:00,17.2,-21.2,28.76,ENE,78,8.1,8.1,16,0.00,,,0.00,VWS V13.01,2013-01-19 21:50:00,
2013-01-19 15:55:00,16.7,-21.7,28.76,East,92,5.4,6.3,16,0.00,,,0.00,VWS V13.01,2013-01-19 21:55:00,
2013-01-19 16:00:00,16.5,-21.8,28.76,ENE,68,5.8,7.6,16,0.00,,,0.00,VWS V13.01,2013-01-19 22:00:00,
2013-01-19 16:07:00,17.6,-20.9,28.76,ESE,119,5.8,5.8,16,0.00,,,0.00,VWS V13.01,2013-01-19 22:07:00,
2013-01-19 16:12:00,17.1,-21.4,28.76,NNE,19,7.6,8.3,16,0.08,,,0.08,VWS V13.01,2013-01-19 22:12:00,
2013-01-19 16:17:00,16.5,-21.8,28.76,East,87,4.9,17.0,16,0.08,,,0.08,VWS V13.01,2013-01-19 22:17:00,
2013-01-19 16:23:00,16.2,-22.1,28.76,East,95,6.3,6.3,16,0.08,,,0.08,VWS V13.01,2013-01-19 22:23:00,
2013-01-19 16:28:00,15.1,-23.0,28.79,NE,48,5.8,9.6,16,0.08,,,0.08,VWS V13.01,2013-01-19 22:28:00,
2013-01-19 16:33:00,14.4,-23.6,28.79,East,79,10.1,11.0,16,0.08,,,0.08,VWS V13.01,2013-01-19 22:33:00,
2013-01-19 16:38:00,13.8,-22.9,28.79,ESE,107,8.3,8.7,17,0.08,,,0.08,VWS V13.01,2013-01-19 22:38:00,
2013-01-19 16:43:00,13.5,-23.2,28.79,NE,56,3.1,5.4,17,0.08,,,0.08,VWS V13.01,2013-01-19 22:43:00,
2013-01-19 16:48:00,13.6,-23.1,28.79,SSE,157,8.1,14.5,17,0.08,,,0.08,VWS V13.01,2013-01-19 22:48:00,
2013-01-19 16:53:00,12.7,-23.8,28.79,SSE,156,11.0,17.9,17,0.08,,,0.08,VWS V13.01,2013-01-19 22:53:00,
2013-01-19 16:58:00,12.2,-24.3,28.82,ENE,77,8.1,8.1,17,0.20,,,0.20,VWS V13.01,2013-01-19 22:58:00,
2013-01-19 17:03:00,11.8,-24.6,28.82,ENE,78,8.1,8.1,17,0.20,,,0.20,VWS V13.01,2013-01-19 23:03:00,
2013-01-19 17:08:00,11.7,-24.7,28.82,NE,37,8.3,10.5,17,0.20,,,0.20,VWS V13.01,2013-01-19 23:08:00,
2013-01-19 17:13:00,11.5,-24.9,28.82,ENE,60,2.7,4.9,17,0.12,,,0.20,VWS V13.01,2013-01-19 23:13:00,
2013-01-19 17:18:00,11.1,-25.2,28.82,SSE,147,6.3,10.5,17,0.12,,,0.20,VWS V13.01,2013-01-19 23:18:00,
2013-01-19 17:23:00,10.4,-25.8,28.85,East,83,4.5,13.2,17,0.12,,,0.20,VWS V13.01,2013-01-19 23:23:00,
2013-01-19 17:29:00,9.9,-26.2,28.85,East,93,4.0,8.1,17,0.12,,,0.20,VWS V13.01,2013-01-19 23:29:00,
2013-01-19 17:34:00,9.5,-26.5,28.85,East,93,5.8,13.2,17,0.12,,,0.20,VWS V13.01,2013-01-19 23:34:00,
2013-01-19 17:39:00,9.3,-26.7,28.85,ESE,120,9.6,15.4,17,0.12,,,0.20,VWS V13.01,2013-01-19 23:39:00,
2013-01-19 17:44:00,9.0,-27.0,28.85,ESE,121,3.6,3.6,17,0.12,,,0.20,VWS V13.01,2013-01-19 23:44:00,
2013-01-19 17:49:00,8.8,-27.1,28.85,SE,143,2.7,13.2,17,0.12,,,0.20,VWS V13.01,2013-01-19 23:49:00,
2013-01-19 17:55:00,8.4,-27.4,28.88,East,91,12.3,15.4,17,0.12,,,0.20,VWS V13.01,2013-01-19 23:55:00,
2013-01-19 18:00:00,8.1,-27.7,28.88,SE,126,11.4,11.4,17,0.00,,,0.20,VWS V13.01,2013-01-20 00:00:00,
2013-01-19 18:05:00,8.1,-27.7,28.88,ENE,69,12.8,12.8,17,0.00,,,0.20,VWS V13.01,2013-01-20 00:05:00,
2013-01-19 18:10:00,7.7,-28.0,28.88,NE,34,4.0,4.0,17,0.00,,,0.20,VWS V13.01,2013-01-20 00:10:00,
2013-01-19 18:15:00,7.7,-28.0,28.88,ENE,61,7.2,7.2,17,0.00,,,0.20,VWS V13.01,2013-01-20 00:15:00,
2013-01-19 18:20:00,7.5,-28.2,28.88,East,89,8.3,8.7,17,0.00,,,0.20,VWS V13.01,2013-01-20 00:20:00,
2013-01-19 18:25:00,7.5,-28.2,28.91,SE,138,5.8,6.3,17,0.00,,,0.20,VWS V13.01,2013-01-20 00:25:00,
2013-01-19 18:30:00,7.2,-28.5,28.91,NE,51,3.6,6.3,17,0.00,,,0.20,VWS V13.01,2013-01-20 00:30:00,
2013-01-19 18:35:00,7.0,-28.6,28.91,SE,143,9.6,10.5,17,0.00,,,0.20,VWS V13.01,2013-01-20 00:35:00,
2013-01-19 18:40:00,7.0,-28.6,28.91,East,83,5.8,6.7,17,0.00,,,0.20,VWS V13.01,2013-01-20 00:40:00,
2013-01-19 18:46:00,6.4,-29.1,28.91,ESE,107,8.7,8.7,17,0.00,,,0.20,VWS V13.01,2013-01-20 00:46:00,
2013-01-19 18:51:00,6.3,-29.2,28.91,SE,133,12.8,12.8,17,0.00,,,0.20,VWS V13.01,2013-01-20 00:51:00,
2013-01-19 18:56:00,6.1,-29.4,28.94,ENE,61,11.0,11.0,17,0.00,,,0.20,VWS V13.01,2013-01-20 00:56:00,
2013-01-19 19:01:00,5.7,-29.7,28.94,SSE,153,5.4,8.7,17,0.00,,,0.20,VWS V13.01,2013-01-20 01:01:00,
2013-01-19 19:06:00,5.5,-29.8,28.94,ENE,69,4.0,8.7,17,0.00,,,0.20,VWS V13.01,2013-01-20 01:06:00,
2013-01-19 19:11:00,5.4,-30.0,28.94,SSE,166,6.7,8.7,17,0.00,,,0.20,VWS V13.01,2013-01-20 01:11:00,
2013-01-19 19:17:00,5.0,-30.3,28.94,East,90,3.6,8.1,17,0.00,,,0.20,VWS V13.01,2013-01-20 01:17:00,
2013-01-19 19:22:00,4.6,-30.6,28.94,East,96,3.6,3.6,17,0.00,,,0.20,VWS V13.01,2013-01-20 01:22:00,
2013-01-19 19:27:00,4.3,-30.9,28.97,ESE,122,6.3,6.3,17,0.00,,,0.20,VWS V13.01,2013-01-20 01:27:00,
2013-01-19 19:32:00,4.5,-30.7,28.97,ESE,113,3.1,5.8,17,0.00,,,0.20,VWS V13.01,2013-01-20 01:32:00,
2013-01-19 19:37:00,4.5,-30.7,28.97,SE,125,3.6,8.1,17,0.00,,,0.20,VWS V13.01,2013-01-20 01:37:00,
2013-01-19 19:42:00,4.1,-31.0,28.97,East,95,4.0,6.3,17,0.00,,,0.20,VWS V13.01,2013-01-20 01:42:00,
2013-01-19 19:47:00,3.9,-31.2,28.97,ENE,78,4.0,8.7,17,0.00,,,0.20,VWS V13.01,2013-01-20 01:47:00,
2013-01-19 19:53:00,3.7,-31.3,28.97,East,92,8.3,8.3,17,0.00,,,0.20,VWS V13.01,2013-01-20 01:53:00,
2013-01-19 19:58:00,3.7,-31.3,28.97,ENE,76,7.6,7.6,17,0.00,,,0.20,VWS V13.01,2013-01-20 01:58:00,
2013-01-19 20:03:00,3.4,-31.6,28.97,ESE,111,0.0,3.1,17,0.00,,,0.20,VWS V13.01,2013-01-20 02:03:00,
2013-01-19 20:08:00,3.6,-31.5,29.00,ENE,64,5.8,10.1,17,0.00,,,0.20,VWS V13.01,2013-01-20 02:08:00,
2013-01-19 20:13:00,3.2,-31.8,29.00,SE,144,3.1,5.4,17,0.00,,,0.20,VWS V13.01,2013-01-20 02:13:00,
2013-01-19 20:19:00,3.2,-31.8,29.00,East,87,5.4,7.6,17,0.00,,,0.20,VWS V13.01,2013-01-20 02:19:00,
2013-01-19 20:24:00,3.0,-31.9,29.00,NE,55,3.1,4.0,17,0.00,,,0.20,VWS V13.01,2013-01-20 02:24:00,
2013-01-19 20:29:00,3.0,-31.9,29.00,East,81,5.4,11.0,17,0.00,,,0.20,VWS V13.01,2013-01-20 02:29:00,
2013-01-19 20:34:00,2.8,-32.1,29.00,ESE,112,0.0,2.7,17,0.00,,,0.20,VWS V13.01,2013-01-20 02:34:00,
2013-01-19 20:39:00,2.7,-32.2,29.00,East,88,2.7,2.7,17,0.00,,,0.20,VWS V13.01,2013-01-20 02:39:00,
2013-01-19 20:44:00,2.5,-32.4,29.00,SSE,156,5.8,5.8,17,0.00,,,0.20,VWS V13.01,2013-01-20 02:44:00,
2013-01-19 20:49:00,2.5,-32.4,29.00,East,100,5.4,5.4,17,0.00,,,0.20,VWS V13.01,2013-01-20 02:49:00,
2013-01-19 20:54:00,2.3,-32.5,29.03,SE,131,4.0,4.0,17,0.00,,,0.20,VWS V13.01,2013-01-20 02:54:00,
2013-01-19 20:59:00,2.5,-32.4,29.03,ESE,115,8.3,8.3,17,0.00,,,0.20,VWS V13.01,2013-01-20 02:59:00,
2013-01-19 21:04:00,2.3,-32.5,29.03,East,83,4.5,5.8,17,0.00,,,0.20,VWS V13.01,2013-01-20 03:04:00,
2013-01-19 21:09:00,2.1,-32.7,29.03,East,92,4.0,6.3,17,0.00,,,0.20,VWS V13.01,2013-01-20 03:09:00,
2013-01-19 21:14:00,1.8,-33.0,29.03,ESE,105,0.0,3.1,17,0.00,,,0.20,VWS V13.01,2013-01-20 03:14:00,
2013-01-19 21:19:00,1.6,-33.1,29.03,East,96,3.1,4.9,17,0.00,,,0.20,VWS V13.01,2013-01-20 03:19:00,
2013-01-19 21:24:00,1.9,-32.8,29.06,ENE,64,5.4,5.4,17,0.00,,,0.20,VWS V13.01,2013-01-20 03:24:00,
2013-01-19 21:29:00,1.8,-33.0,29.06,East,101,3.6,5.4,17,0.00,,,0.20,VWS V13.01,2013-01-20 03:29:00,
2013-01-19 21:34:00,1.9,-32.8,29.06,NE,56,2.2,3.6,17,0.00,,,0.20,VWS V13.01,2013-01-20 03:34:00,
2013-01-19 21:39:00,1.9,-32.8,29.06,East,101,3.1,8.3,17,0.00,,,0.20,VWS V13.01,2013-01-20 03:39:00,
2013-01-19 21:44:00,1.6,-33.1,29.06,ESE,122,6.3,6.3,17,0.00,,,0.20,VWS V13.01,2013-01-20 03:44:00,
2013-01-19 21:49:00,1.2,-33.4,29.06,NNW,341,3.1,4.0,17,0.00,,,0.20,VWS V13.01,2013-01-20 03:49:00,
2013-01-19 21:54:00,1.6,-33.1,29.06,East,90,3.6,5.8,17,0.00,,,0.20,VWS V13.01,2013-01-20 03:54:00,
2013-01-19 21:59:00,1.6,-33.1,29.06,South,182,5.8,8.7,17,0.00,,,0.20,VWS V13.01,2013-01-20 03:59:00,
2013-01-19 22:04:00,1.6,-33.1,29.06,East,97,3.6,5.4,17,0.00,,,0.20,VWS V13.01,2013-01-20 04:04:00,
2013-01-19 22:09:00,1.2,-33.4,29.06,ESE,120,2.7,4.0,17,0.00,,,0.20,VWS V13.01,2013-01-20 04:09:00,
2013-01-19 22:14:00,1.2,-33.4,29.06,ENE,68,2.7,4.9,17,0.00,,,0.20,VWS V13.01,2013-01-20 04:14:00,
2013-01-19 22:19:00,1.2,-33.4,29.06,NE,51,6.3,6.3,17,0.00,,,0.20,VWS V13.01,2013-01-20 04:19:00,
2013-01-19 22:24:00,1.0,-33.6,29.06,ENE,66,2.2,3.6,17,0.00,,,0.20,VWS V13.01,2013-01-20 04:24:00,
2013-01-19 22:29:00,1.2,-33.4,29.06,SSE,148,4.0,8.1,17,0.00,,,0.20,VWS V13.01,2013-01-20 04:29:00,
2013-01-19 22:34:00,0.9,-33.7,29.06,ESE,106,2.2,4.9,17,0.00,,,0.20,VWS V13.01,2013-01-20 04:34:00,
2013-01-19 22:39:00,0.3,-34.2,29.06,ESE,107,3.6,3.6,17,0.00,,,0.20,VWS V13.01,2013-01-20 04:39:00,
2013-01-19 22:44:00,0.7,-33.9,29.06,NE,50,3.1,4.0,17,0.00,,,0.20,VWS V13.01,2013-01-20 04:44:00,
2013-01-19 22:49:00,0.5,-34.0,29.06,East,99,0.0,3.6,17,0.00,,,0.20,VWS V13.01,2013-01-20 04:49:00,
2013-01-19 22:55:00,0.3,-34.2,29.06,SSE,150,2.7,6.3,17,0.00,,,0.20,VWS V13.01,2013-01-20 04:55:00,
2013-01-19 23:00:00,0.3,-34.2,29.06,ESE,102,0.0,4.9,17,0.00,,,0.20,VWS V13.01,2013-01-20 05:00:00,
2013-01-19 23:01:00,0.3,-34.2,29.06,ESE,108,4.0,4.0,17,0.00,,,0.20,VWS V13.01,2013-01-20 05:01:00,
2013-01-19 23:03:00,0.3,-34.2,29.06,East,79,2.2,2.2,17,0.00,,,0.20,VWS V13.01,2013-01-20 05:03:00,
2013-01-19 23:04:00,0.3,-34.2,29.06,East,99,4.0,4.0,17,0.00,,,0.20,VWS V13.01,2013-01-20 05:04:00,
2013-01-19 23:09:00,0.3,-34.2,29.06,ESE,118,4.0,4.0,17,0.00,,,0.20,VWS V13.01,2013-01-20 05:09:00,
2013-01-19 23:14:00,0.1,-34.3,29.06,East,99,3.1,4.9,17,0.00,,,0.20,VWS V13.01,2013-01-20 05:14:00,
2013-01-19 23:19:00,-0.4,-34.8,29.06,East,95,0.0,2.7,17,0.00,,,0.20,VWS V13.01,2013-01-20 05:19:00,
2013-01-19 23:24:00,-0.8,-35.1,29.06,ENE,75,0.0,3.1,17,0.00,,,0.20,VWS V13.01,2013-01-20 05:24:00,
2013-01-19 23:29:00,-0.4,-34.8,29.06,NE,53,6.3,6.3,17,0.00,,,0.20,VWS V13.01,2013-01-20 05:29:00,
2013-01-19 23:34:00,-0.8,-35.1,29.06,SE,126,3.1,3.1,17,0.00,,,0.20,VWS V13.01,2013-01-20 05:34:00,
2013-01-19 23:39:00,-0.6,-34.9,29.06,SE,129,2.7,5.4,17,0.00,,,0.20,VWS V13.01,2013-01-20 05:39:00,
2013-01-19 23:44:00,-0.8,-35.1,29.06,ESE,108,4.0,4.0,17,0.00,,,0.20,VWS V13.01,2013-01-20 05:44:00,
2013-01-19 23:49:00,-0.9,-35.2,29.06,SSE,148,4.5,4.5,17,0.00,,,0.20,VWS V13.01,2013-01-20 05:49:00,
2013-01-19 23:54:00,-0.8,-35.1,29.09,ESE,107,5.4,5.4,17,0.00,,,0.20,VWS V13.01,2013-01-20 05:54:00,
2013-01-19 23:59:00,-0.8,-35.1,29.09,ESE,110,4.0,6.3,17,0.00,,,0.20,VWS V13.01,2013-01-20 05:59:00,